sensor_id;sensor_type;location;lat;lon;timestamp;pressure;altitude;pressure_sealevel;temperature;humidity
42847;BME280;28495;49.916;14.536;2022-10-29T00:00:36;97622.09;;;14.40;72.95
42847;BME280;28495;49.916;14.536;2022-10-29T00:06:11;97625.41;;;14.42;72.77
42847;BME280;28495;49.916;14.536;2022-10-29T00:11:32;97622.41;;;14.27;72.42
42847;BME280;28495;49.916;14.536;2022-10-29T00:16:53;97628.09;;;14.22;72.55
42847;BME280;28495;49.916;14.536;2022-10-29T00:22:16;97631.00;;;14.19;73.02
42847;BME280;28495;49.916;14.536;2022-10-29T00:27:37;97647.28;;;14.23;72.99
42847;BME280;28495;49.916;14.536;2022-10-29T00:32:57;97649.59;;;14.36;73.11
42847;BME280;28495;49.916;14.536;2022-10-29T00:38:18;97642.28;;;14.29;72.81
42847;BME280;28495;49.916;14.536;2022-10-29T00:43:50;97641.44;;;14.39;73.09
42847;BME280;28495;49.916;14.536;2022-10-29T00:49:11;97643.63;;;14.43;73.11
42847;BME280;28495;49.916;14.536;2022-10-29T00:54:34;97636.22;;;14.29;72.67
42847;BME280;28495;49.916;14.536;2022-10-29T00:59:58;97638.06;;;14.18;72.56
42847;BME280;28495;49.916;14.536;2022-10-29T01:05:27;97633.06;;;14.25;72.89
42847;BME280;28495;49.916;14.536;2022-10-29T01:16:59;97642.09;;;13.93;72.13
42847;BME280;28495;49.916;14.536;2022-10-29T01:34:15;97636.97;;;14.01;72.03
42847;BME280;28495;49.916;14.536;2022-10-29T01:45:22;97628.19;;;13.83;72.11
42847;BME280;28495;49.916;14.536;2022-10-29T01:50:48;97625.13;;;13.87;72.31
42847;BME280;28495;49.916;14.536;2022-10-29T01:56:11;97619.19;;;13.95;72.46
42847;BME280;28495;49.916;14.536;2022-10-29T02:12:53;97616.03;;;13.43;72.01
42847;BME280;28495;49.916;14.536;2022-10-29T02:18:16;97604.59;;;13.44;72.22
42847;BME280;28495;49.916;14.536;2022-10-29T02:23:37;97600.00;;;13.36;71.66
42847;BME280;28495;49.916;14.536;2022-10-29T02:28:58;97593.78;;;13.07;71.51
42847;BME280;28495;49.916;14.536;2022-10-29T02:34:18;97595.94;;;12.92;71.60
42847;BME280;28495;49.916;14.536;2022-10-29T02:39:39;97591.56;;;12.93;72.18
42847;BME280;28495;49.916;14.536;2022-10-29T02:45:00;97590.59;;;13.04;72.39
42847;BME280;28495;49.916;14.536;2022-10-29T02:50:20;97594.59;;;12.98;72.23
42847;BME280;28495;49.916;14.536;2022-10-29T02:55:41;97591.84;;;13.00;71.99
42847;BME280;28495;49.916;14.536;2022-10-29T03:01:02;97599.28;;;13.04;72.51
42847;BME280;28495;49.916;14.536;2022-10-29T03:06:24;97588.53;;;13.17;72.69
42847;BME280;28495;49.916;14.536;2022-10-29T03:11:44;97587.72;;;13.07;72.16
42847;BME280;28495;49.916;14.536;2022-10-29T03:17:05;97584.38;;;12.85;71.73
42847;BME280;28495;49.916;14.536;2022-10-29T03:22:26;97568.34;;;12.78;71.99
42847;BME280;28495;49.916;14.536;2022-10-29T03:27:46;97560.94;;;12.84;72.20
42847;BME280;28495;49.916;14.536;2022-10-29T03:33:07;97557.50;;;12.83;72.12
42847;BME280;28495;49.916;14.536;2022-10-29T03:38:28;97560.91;;;12.74;71.85
42847;BME280;28495;49.916;14.536;2022-10-29T03:43:49;97565.84;;;12.67;71.99
42847;BME280;28495;49.916;14.536;2022-10-29T03:49:10;97565.72;;;12.59;71.73
42847;BME280;28495;49.916;14.536;2022-10-29T03:54:31;97573.13;;;12.54;72.28
42847;BME280;28495;49.916;14.536;2022-10-29T03:59:53;97578.25;;;12.55;72.72
42847;BME280;28495;49.916;14.536;2022-10-29T04:05:13;97569.84;;;12.61;72.97
42847;BME280;28495;49.916;14.536;2022-10-29T04:10:34;97570.31;;;12.76;73.24
42847;BME280;28495;49.916;14.536;2022-10-29T04:15:55;97566.72;;;12.77;73.01
42847;BME280;28495;49.916;14.536;2022-10-29T04:21:16;97571.00;;;12.88;72.83
42847;BME280;28495;49.916;14.536;2022-10-29T04:26:57;97570.59;;;12.83;72.60
42847;BME280;28495;49.916;14.536;2022-10-29T04:32:38;97581.06;;;12.83;72.74
42847;BME280;28495;49.916;14.536;2022-10-29T04:37:58;97578.16;;;12.86;72.71
42847;BME280;28495;49.916;14.536;2022-10-29T04:43:19;97583.56;;;12.94;72.96
42847;BME280;28495;49.916;14.536;2022-10-29T04:48:40;97594.44;;;12.90;72.42
42847;BME280;28495;49.916;14.536;2022-10-29T04:54:00;97587.13;;;12.84;72.13
42847;BME280;28495;49.916;14.536;2022-10-29T04:59:21;97587.09;;;12.74;72.17
42847;BME280;28495;49.916;14.536;2022-10-29T05:04:41;97593.69;;;12.68;72.39
42847;BME280;28495;49.916;14.536;2022-10-29T05:10:02;97601.25;;;12.61;72.08
42847;BME280;28495;49.916;14.536;2022-10-29T05:15:23;97595.97;;;12.52;71.94
42847;BME280;28495;49.916;14.536;2022-10-29T05:20:45;97609.53;;;12.35;71.68
42847;BME280;28495;49.916;14.536;2022-10-29T05:26:05;97595.06;;;12.31;71.83
42847;BME280;28495;49.916;14.536;2022-10-29T05:31:26;97597.97;;;12.38;72.31
42847;BME280;28495;49.916;14.536;2022-10-29T05:36:47;97598.13;;;12.37;72.19
42847;BME280;28495;49.916;14.536;2022-10-29T05:42:07;97608.38;;;12.28;71.65
42847;BME280;28495;49.916;14.536;2022-10-29T05:47:28;97609.69;;;12.13;71.78
42847;BME280;28495;49.916;14.536;2022-10-29T05:53:14;97612.75;;;12.18;72.43
42847;BME280;28495;49.916;14.536;2022-10-29T05:58:35;97608.72;;;12.14;71.97
42847;BME280;28495;49.916;14.536;2022-10-29T06:03:56;97625.66;;;12.10;71.99
42847;BME280;28495;49.916;14.536;2022-10-29T06:09:17;97619.59;;;12.09;72.21
42847;BME280;28495;49.916;14.536;2022-10-29T06:14:38;97624.66;;;12.11;72.41
42847;BME280;28495;49.916;14.536;2022-10-29T06:19:58;97629.66;;;12.14;72.32
42847;BME280;28495;49.916;14.536;2022-10-29T06:25:19;97631.63;;;12.22;72.57
42847;BME280;28495;49.916;14.536;2022-10-29T06:30:44;97645.47;;;12.33;72.65
42847;BME280;28495;49.916;14.536;2022-10-29T06:36:05;97642.78;;;12.24;72.09
42847;BME280;28495;49.916;14.536;2022-10-29T06:41:26;97644.50;;;12.34;72.61
42847;BME280;28495;49.916;14.536;2022-10-29T06:46:48;97647.34;;;12.53;72.65
42847;BME280;28495;49.916;14.536;2022-10-29T06:52:10;97646.22;;;12.45;72.08
42847;BME280;28495;49.916;14.536;2022-10-29T06:57:31;97649.53;;;12.47;72.43
42847;BME280;28495;49.916;14.536;2022-10-29T07:02:51;97651.44;;;12.45;72.40
42847;BME280;28495;49.916;14.536;2022-10-29T07:08:12;97648.53;;;12.48;72.64
42847;BME280;28495;49.916;14.536;2022-10-29T07:13:33;97644.19;;;12.59;72.77
42847;BME280;28495;49.916;14.536;2022-10-29T07:18:55;97644.66;;;12.74;73.02
42847;BME280;28495;49.916;14.536;2022-10-29T07:24:15;97654.63;;;12.80;72.74
42847;BME280;28495;49.916;14.536;2022-10-29T07:29:39;97665.09;;;12.80;72.66
42847;BME280;28495;49.916;14.536;2022-10-29T07:35:00;97659.75;;;12.91;73.09
42847;BME280;28495;49.916;14.536;2022-10-29T07:40:20;97668.25;;;13.24;73.92
42847;BME280;28495;49.916;14.536;2022-10-29T07:45:43;97664.84;;;13.44;73.76
42847;BME280;28495;49.916;14.536;2022-10-29T07:51:04;97670.09;;;13.44;72.95
42847;BME280;28495;49.916;14.536;2022-10-29T07:56:25;97674.78;;;13.40;73.30
42847;BME280;28495;49.916;14.536;2022-10-29T08:01:47;97688.28;;;13.55;73.44
42847;BME280;28495;49.916;14.536;2022-10-29T08:07:08;97686.13;;;13.80;73.73
42847;BME280;28495;49.916;14.536;2022-10-29T08:12:29;97697.44;;;13.80;73.25
42847;BME280;28495;49.916;14.536;2022-10-29T08:17:50;97680.88;;;13.90;73.03
42847;BME280;28495;49.916;14.536;2022-10-29T08:23:12;97681.84;;;13.98;72.62
42847;BME280;28495;49.916;14.536;2022-10-29T08:28:32;97680.44;;;14.14;72.82
42847;BME280;28495;49.916;14.536;2022-10-29T08:33:55;97671.16;;;14.29;72.60
42847;BME280;28495;49.916;14.536;2022-10-29T08:39:15;97662.00;;;14.43;72.20
42847;BME280;28495;49.916;14.536;2022-10-29T08:50:26;97654.19;;;14.71;72.06
42847;BME280;28495;49.916;14.536;2022-10-29T08:55:49;97662.47;;;14.76;71.62
42847;BME280;28495;49.916;14.536;2022-10-29T09:01:10;97666.47;;;14.81;71.33
42847;BME280;28495;49.916;14.536;2022-10-29T09:06:45;97668.53;;;14.77;71.65
42847;BME280;28495;49.916;14.536;2022-10-29T09:18:06;97666.03;;;14.85;71.24
42847;BME280;28495;49.916;14.536;2022-10-29T09:24:27;97668.22;;;14.90;71.26
42847;BME280;28495;49.916;14.536;2022-10-29T09:34:55;97662.53;;;14.94;71.06
42847;BME280;28495;49.916;14.536;2022-10-29T09:40:35;97655.69;;;15.12;71.34
42847;BME280;28495;49.916;14.536;2022-10-29T09:51:51;97656.69;;;15.47;71.19
42847;BME280;28495;49.916;14.536;2022-10-29T09:57:22;97638.44;;;15.63;71.14
42847;BME280;28495;49.916;14.536;2022-10-29T10:02:48;97626.66;;;15.85;71.28
42847;BME280;28495;49.916;14.536;2022-10-29T10:08:14;97620.06;;;16.08;71.09
42847;BME280;28495;49.916;14.536;2022-10-29T10:13:36;97617.25;;;16.27;70.86
42847;BME280;28495;49.916;14.536;2022-10-29T10:19:23;97617.13;;;16.37;70.57
42847;BME280;28495;49.916;14.536;2022-10-29T10:24:45;97607.31;;;16.48;70.60
42847;BME280;28495;49.916;14.536;2022-10-29T10:30:13;97599.66;;;16.63;70.46
42847;BME280;28495;49.916;14.536;2022-10-29T10:35:36;97601.81;;;16.75;70.34
42847;BME280;28495;49.916;14.536;2022-10-29T10:41:01;97603.03;;;16.89;70.06
42847;BME280;28495;49.916;14.536;2022-10-29T10:46:28;97607.38;;;16.99;69.82
42847;BME280;28495;49.916;14.536;2022-10-29T10:51:52;97596.06;;;17.15;69.92
42847;BME280;28495;49.916;14.536;2022-10-29T11:02:50;97591.81;;;17.47;69.61
42847;BME280;28495;49.916;14.536;2022-10-29T11:08:20;97589.03;;;17.65;69.40
42847;BME280;28495;49.916;14.536;2022-10-29T11:13:42;97579.94;;;17.84;69.31
42847;BME280;28495;49.916;14.536;2022-10-29T11:19:27;97578.13;;;18.01;68.98
42847;BME280;28495;49.916;14.536;2022-10-29T11:30:19;97572.81;;;18.26;68.60
42847;BME280;28495;49.916;14.536;2022-10-29T11:35:53;97564.19;;;18.32;68.52
42847;BME280;28495;49.916;14.536;2022-10-29T11:41:45;97560.03;;;18.38;68.46
42847;BME280;28495;49.916;14.536;2022-10-29T11:58:25;97545.38;;;18.75;68.10
42847;BME280;28495;49.916;14.536;2022-10-29T12:15:31;97531.59;;;18.88;67.34
42847;BME280;28495;49.916;14.536;2022-10-29T12:21:05;97519.03;;;18.90;67.29
42847;BME280;28495;49.916;14.536;2022-10-29T12:26:43;97522.28;;;19.00;67.36
42847;BME280;28495;49.916;14.536;2022-10-29T12:32:30;97516.44;;;19.13;67.05
42847;BME280;28495;49.916;14.536;2022-10-29T12:43:59;97506.47;;;19.15;66.90
42847;BME280;28495;49.916;14.536;2022-10-29T12:55:06;97492.66;;;19.13;66.55
42847;BME280;28495;49.916;14.536;2022-10-29T13:00:48;97482.34;;;19.18;66.79
42847;BME280;28495;49.916;14.536;2022-10-29T13:12:08;97483.63;;;19.23;66.60
42847;BME280;28495;49.916;14.536;2022-10-29T13:17:38;97476.63;;;19.30;66.67
42847;BME280;28495;49.916;14.536;2022-10-29T13:23:00;97474.97;;;19.29;66.19
42847;BME280;28495;49.916;14.536;2022-10-29T13:33:48;97470.22;;;19.24;66.11
42847;BME280;28495;49.916;14.536;2022-10-29T13:39:17;97468.22;;;19.26;66.23
42847;BME280;28495;49.916;14.536;2022-10-29T13:44:39;97459.75;;;19.31;66.35
42847;BME280;28495;49.916;14.536;2022-10-29T13:49:59;97463.88;;;19.33;66.78
42847;BME280;28495;49.916;14.536;2022-10-29T13:55:21;97459.25;;;19.36;66.56
42847;BME280;28495;49.916;14.536;2022-10-29T14:00:44;97467.34;;;19.34;66.30
42847;BME280;28495;49.916;14.536;2022-10-29T14:06:17;97460.59;;;19.31;66.15
42847;BME280;28495;49.916;14.536;2022-10-29T14:11:48;97469.22;;;19.25;66.32
42847;BME280;28495;49.916;14.536;2022-10-29T14:17:14;97456.34;;;19.22;66.29
42847;BME280;28495;49.916;14.536;2022-10-29T14:22:38;97453.25;;;19.18;66.36
42847;BME280;28495;49.916;14.536;2022-10-29T14:28:30;97445.22;;;19.12;67.04
42847;BME280;28495;49.916;14.536;2022-10-29T14:33:56;97457.25;;;19.14;67.30
42847;BME280;28495;49.916;14.536;2022-10-29T14:44:58;97451.03;;;19.07;67.18
42847;BME280;28495;49.916;14.536;2022-10-29T14:50:22;97458.56;;;18.95;67.19
42847;BME280;28495;49.916;14.536;2022-10-29T14:55:48;97452.19;;;18.81;67.29
42847;BME280;28495;49.916;14.536;2022-10-29T15:01:15;97454.06;;;18.72;67.38
42847;BME280;28495;49.916;14.536;2022-10-29T15:06:39;97452.47;;;18.63;67.38
42847;BME280;28495;49.916;14.536;2022-10-29T15:12:05;97459.28;;;18.57;67.42
42847;BME280;28495;49.916;14.536;2022-10-29T15:17:29;97452.56;;;18.47;67.44
42847;BME280;28495;49.916;14.536;2022-10-29T15:22:52;97456.56;;;18.42;67.59
42847;BME280;28495;49.916;14.536;2022-10-29T15:28:22;97458.06;;;18.37;67.45
42847;BME280;28495;49.916;14.536;2022-10-29T15:33:44;97463.22;;;18.30;67.64
42847;BME280;28495;49.916;14.536;2022-10-29T15:39:18;97458.94;;;18.29;67.85
42847;BME280;28495;49.916;14.536;2022-10-29T15:44:39;97462.06;;;18.24;67.94
42847;BME280;28495;49.916;14.536;2022-10-29T15:50:01;97463.44;;;18.12;67.61
42847;BME280;28495;49.916;14.536;2022-10-29T15:55:27;97455.72;;;18.02;67.75
42847;BME280;28495;49.916;14.536;2022-10-29T16:00:50;97460.53;;;17.90;67.85
42847;BME280;28495;49.916;14.536;2022-10-29T16:06:11;97467.16;;;17.86;67.76
42847;BME280;28495;49.916;14.536;2022-10-29T16:11:33;97473.13;;;17.63;67.90
42847;BME280;28495;49.916;14.536;2022-10-29T16:16:54;97479.59;;;17.52;68.12
42847;BME280;28495;49.916;14.536;2022-10-29T16:22:28;97475.59;;;17.57;68.28
42847;BME280;28495;49.916;14.536;2022-10-29T16:27:49;97479.41;;;17.54;68.18
42847;BME280;28495;49.916;14.536;2022-10-29T16:33:10;97474.00;;;17.39;68.41
42847;BME280;28495;49.916;14.536;2022-10-29T16:38:32;97475.31;;;17.35;68.53
42847;BME280;28495;49.916;14.536;2022-10-29T16:43:52;97472.50;;;17.20;68.37
42847;BME280;28495;49.916;14.536;2022-10-29T16:49:13;97481.72;;;17.08;68.48
42847;BME280;28495;49.916;14.536;2022-10-29T16:54:33;97482.22;;;17.03;68.79
42847;BME280;28495;49.916;14.536;2022-10-29T16:59:54;97486.63;;;16.94;68.68
42847;BME280;28495;49.916;14.536;2022-10-29T17:05:15;97480.88;;;16.90;68.96
42847;BME280;28495;49.916;14.536;2022-10-29T17:10:36;97476.91;;;16.86;68.75
42847;BME280;28495;49.916;14.536;2022-10-29T17:15:57;97483.16;;;16.85;69.27
42847;BME280;28495;49.916;14.536;2022-10-29T17:21:17;97479.84;;;16.83;69.34
42847;BME280;28495;49.916;14.536;2022-10-29T17:26:38;97479.69;;;16.76;69.21
42847;BME280;28495;49.916;14.536;2022-10-29T17:31:59;97485.94;;;16.67;69.09
42847;BME280;28495;49.916;14.536;2022-10-29T17:37:20;97493.84;;;16.67;69.58
42847;BME280;28495;49.916;14.536;2022-10-29T17:42:41;97488.72;;;16.66;69.51
42847;BME280;28495;49.916;14.536;2022-10-29T17:48:02;97487.69;;;16.50;69.25
42847;BME280;28495;49.916;14.536;2022-10-29T17:53:24;97488.66;;;16.49;69.50
42847;BME280;28495;49.916;14.536;2022-10-29T17:58:45;97491.66;;;16.54;69.39
42847;BME280;28495;49.916;14.536;2022-10-29T18:04:06;97492.50;;;16.63;69.42
42847;BME280;28495;49.916;14.536;2022-10-29T18:09:27;97487.72;;;16.67;69.31
42847;BME280;28495;49.916;14.536;2022-10-29T18:14:47;97489.06;;;16.63;69.31
42847;BME280;28495;49.916;14.536;2022-10-29T18:20:09;97485.09;;;16.58;69.21
42847;BME280;28495;49.916;14.536;2022-10-29T18:25:29;97487.22;;;16.55;69.23
42847;BME280;28495;49.916;14.536;2022-10-29T18:30:50;97481.13;;;16.54;69.31
42847;BME280;28495;49.916;14.536;2022-10-29T18:36:11;97477.00;;;16.60;69.52
42847;BME280;28495;49.916;14.536;2022-10-29T18:41:33;97474.25;;;16.61;69.50
42847;BME280;28495;49.916;14.536;2022-10-29T18:46:53;97475.84;;;16.54;69.43
42847;BME280;28495;49.916;14.536;2022-10-29T18:52:14;97472.41;;;16.54;69.25
42847;BME280;28495;49.916;14.536;2022-10-29T18:57:35;97466.31;;;16.53;69.24
42847;BME280;28495;49.916;14.536;2022-10-29T19:02:56;97467.16;;;16.54;69.38
42847;BME280;28495;49.916;14.536;2022-10-29T19:08:17;97469.91;;;16.52;69.27
42847;BME280;28495;49.916;14.536;2022-10-29T19:13:38;97474.34;;;16.43;69.20
42847;BME280;28495;49.916;14.536;2022-10-29T19:19:02;97476.66;;;16.38;69.08
42847;BME280;28495;49.916;14.536;2022-10-29T19:24:28;97478.94;;;16.41;69.39
42847;BME280;28495;49.916;14.536;2022-10-29T19:29:49;97472.69;;;16.42;69.33
42847;BME280;28495;49.916;14.536;2022-10-29T19:35:10;97473.53;;;16.43;69.25
42847;BME280;28495;49.916;14.536;2022-10-29T19:40:30;97477.09;;;16.34;69.05
42847;BME280;28495;49.916;14.536;2022-10-29T19:45:51;97481.00;;;16.21;68.97
42847;BME280;28495;49.916;14.536;2022-10-29T19:51:12;97466.84;;;16.14;69.15
42847;BME280;28495;49.916;14.536;2022-10-29T19:56:33;97472.72;;;15.99;68.97
42847;BME280;28495;49.916;14.536;2022-10-29T20:01:53;97468.56;;;15.97;69.48
42847;BME280;28495;49.916;14.536;2022-10-29T20:07:14;97474.31;;;15.92;69.02
42847;BME280;28495;49.916;14.536;2022-10-29T20:12:34;97470.56;;;15.77;69.10
42847;BME280;28495;49.916;14.536;2022-10-29T20:17:55;97478.34;;;15.60;68.97
42847;BME280;28495;49.916;14.536;2022-10-29T20:23:19;97478.25;;;15.44;68.82
42847;BME280;28495;49.916;14.536;2022-10-29T20:28:41;97476.16;;;15.29;69.10
42847;BME280;28495;49.916;14.536;2022-10-29T20:34:02;97480.81;;;15.35;69.49
42847;BME280;28495;49.916;14.536;2022-10-29T20:39:22;97476.53;;;15.34;69.48
42847;BME280;28495;49.916;14.536;2022-10-29T20:44:46;97478.28;;;15.26;69.35
42847;BME280;28495;49.916;14.536;2022-10-29T20:50:07;97486.84;;;15.28;69.48
42847;BME280;28495;49.916;14.536;2022-10-29T20:55:28;97481.00;;;15.34;69.67
42847;BME280;28495;49.916;14.536;2022-10-29T21:00:49;97482.47;;;15.36;69.39
42847;BME280;28495;49.916;14.536;2022-10-29T21:06:11;97482.66;;;15.17;69.43
42847;BME280;28495;49.916;14.536;2022-10-29T21:11:36;97478.66;;;15.13;69.48
42847;BME280;28495;49.916;14.536;2022-10-29T21:16:57;97485.50;;;15.23;69.61
42847;BME280;28495;49.916;14.536;2022-10-29T21:22:17;97477.31;;;15.27;69.64
42847;BME280;28495;49.916;14.536;2022-10-29T21:27:38;97469.22;;;15.20;69.41
42847;BME280;28495;49.916;14.536;2022-10-29T21:32:59;97471.09;;;15.09;69.55
42847;BME280;28495;49.916;14.536;2022-10-29T21:38:21;97471.56;;;15.05;69.41
42847;BME280;28495;49.916;14.536;2022-10-29T21:43:42;97464.97;;;15.01;69.63
42847;BME280;28495;49.916;14.536;2022-10-29T21:49:03;97463.38;;;14.90;70.51
42847;BME280;28495;49.916;14.536;2022-10-29T21:54:24;97464.88;;;15.11;69.78
42847;BME280;28495;49.916;14.536;2022-10-29T21:59:48;97455.69;;;15.15;69.79
42847;BME280;28495;49.916;14.536;2022-10-29T22:05:08;97452.94;;;15.16;69.57
42847;BME280;28495;49.916;14.536;2022-10-29T22:10:29;97454.06;;;14.96;69.65
42847;BME280;28495;49.916;14.536;2022-10-29T22:15:49;97469.59;;;14.89;69.86
42847;BME280;28495;49.916;14.536;2022-10-29T22:21:18;97466.97;;;14.71;69.67
42847;BME280;28495;49.916;14.536;2022-10-29T22:26:39;97473.16;;;14.52;69.65
42847;BME280;28495;49.916;14.536;2022-10-29T22:32:00;97465.88;;;14.45;70.18
42847;BME280;28495;49.916;14.536;2022-10-29T22:37:20;97459.38;;;14.50;70.33
42847;BME280;28495;49.916;14.536;2022-10-29T22:42:41;97455.09;;;14.48;70.12
42847;BME280;28495;49.916;14.536;2022-10-29T22:48:02;97451.44;;;14.59;70.88
42847;BME280;28495;49.916;14.536;2022-10-29T22:53:23;97452.75;;;14.63;70.57
42847;BME280;28495;49.916;14.536;2022-10-29T22:58:44;97461.56;;;14.72;70.97
42847;BME280;28495;49.916;14.536;2022-10-29T23:04:05;97460.09;;;14.70;70.47
42847;BME280;28495;49.916;14.536;2022-10-29T23:09:26;97463.53;;;14.70;70.83
42847;BME280;28495;49.916;14.536;2022-10-29T23:14:47;97460.91;;;14.70;70.76
42847;BME280;28495;49.916;14.536;2022-10-29T23:20:08;97464.72;;;14.76;70.94
42847;BME280;28495;49.916;14.536;2022-10-29T23:25:29;97459.03;;;14.81;71.02
42847;BME280;28495;49.916;14.536;2022-10-29T23:30:56;97452.81;;;14.82;70.95
42847;BME280;28495;49.916;14.536;2022-10-29T23:36:20;97453.41;;;14.75;70.74
42847;BME280;28495;49.916;14.536;2022-10-29T23:41:41;97452.91;;;14.62;70.68
42847;BME280;28495;49.916;14.536;2022-10-29T23:47:01;97453.78;;;14.53;70.84
42847;BME280;28495;49.916;14.536;2022-10-29T23:52:22;97450.56;;;14.41;70.78
42847;BME280;28495;49.916;14.536;2022-10-29T23:57:43;97446.53;;;14.46;71.38
